Impacts TAF Board
For situational awareness. Not to be used for flight planning purposes.
IDs:

KMEM - Memphis Intl, TN, US

Issued at 1849 UTC 18 Jun 2019
Updated at 1934 UTC 18 Jun 2019
Potential Impact None Slight Moderate High
Time1854Z 18/20Z 18/21Z 18/22Z 18/23Z 19/00Z 19/01Z 19/02Z 19/03Z 19/04Z 19/05Z 19/06Z 19/07Z 19/08Z>>
Type OBS PRVL PRVL PRVL PRVL PRVL PRVL PRVL PRVL PRVL PRVL PRVL PRVL PRVL
VIS 10 >6 >6 >6 >6 >6 >6 >6 >6 >6 >6 >6 >6 >6
CIG 50 45 45 60 60 60 100 100 100 100 100 50 50 50
Cover BKN BKN BKN BKN BKN BKN BKN BKN BKN BKN BKN BKN BKN BKN
FltCat VFR VFR VFR VFR VFR VFR VFR VFR VFR VFR VFR VFR VFR VFR
WX -- VCSH VCSH VCTS VCTS VCTS VCSH VCSH VCSH VCSH VCSH -- -- --
WDir VRB 210 210 230 230 230 220 220 220 220 220 200 200 200
WSpd 0 5 5 6 6 6 5 5 5 5 5 4 4 4
WGst -- -- -- -- -- -- -- -- -- -- -- -- -- --
Raw TAF
KMEM 181849Z 1819/1924 21005KT P6SM VCSH SCT025 BKN045
  FM182200 23006KT P6SM VCTS SCT030CB BKN060
  FM190100 22005KT P6SM VCSH SCT030 BKN100
  FM190600 20004KT P6SM SCT020 BKN050
  TEMPO 1909/1913 4SM BR BKN020
  FM191600 22009KT P6SM VCSH SCT030 BKN100


Raw METAR
KMEM 181854Z 00000KT 10SM SCT024 BKN050 BKN080 28/23 A2989 RMK AO2 SLP118 T02830233 $
KMEM 181844Z 00000KT 10SM SCT020 BKN045 BKN075 28/23 A2989 RMK AO2 T02780233 $
KMEM 181800Z VRB05KT 10SM SCT013CB BKN028 28/24 A2991 RMK AO2 CB N MOV NE T02780239 $
KMEM 181754Z 00000KT 10SM SCT013 BKN028 27/23 A2991 RMK AO2 SLP125 60000 T02670233 10267 20222 58005 $
KMEM 181741Z 16004KT 10SM SCT013 BKN025 27/24 A2992 RMK AO2 T02670239 $
KMEM 181654Z 00000KT 10SM FEW009 BKN015 OVC022 25/23 A2993 RMK AO2 SLP129 T02500228 $
KMEM 181646Z 00000KT 10SM SCT009 BKN015 OVC022 25/23 A2993 RMK AO2 T02500233 $

METAR Board
Radar Display
Forecast Discussion
For situational awareness. Not to be used for flight planning purposes.